Terminal Aerodrome Forecast
Issued by NWS

Home | Current Version | Previous Version | Graphics & Text | Print | Product List | Glossary On
Versions: 1 2 3 4 5 6 7 8 9 10 11 12 13 14 15
000
FTUS43 KICT 270520
TAFSLN
TAF
KSLN 270520Z 2706/2806 16008KT P6SM BKN250
     FM270700 29011KT P6SM -RA VCTS BKN100CB
      TEMPO 2707/2709 VRB15G25KT -TSRA
     FM271100 13008KT P6SM SCT100 BKN250
     FM271500 17014KT P6SM SCT250
     FM271800 18019G27KT P6SM SCT250
     FM280100 17014G19KT P6SM SCT250=

USA.gov is the U.S. government's official web portal to all federal, state and local government web resources and services.